Hlavní strana
METAR-TAF:

METAR-TAF

Letiště :

Nairobi, Keňa

zeměpisná šířka: 01-19S, zeměpisná délka: 036-55E, výška: 1624 m

Aktuální stav počasí

Zpráva byla vytvořena před 26 minutami, v 09:00 UTC
Jižní vítr 12 kt
Teplota 23°C
Vlhkost vzduchu 50%
Tlak 1025 hPa
Viditelnost 10 km a více
Skoro jasno ve výšce 2600 ft

METAR: HKJK 280900Z 18012KT 9999 FEW026 23/12 Q1025

Čas: 12:26 (09:26 UTC)

Předpověď počasí

Zpráva byla vytvořena před 4 hodinami a 26 minutami, v 05:00 UTC
Předpověď platná od 28 v 06 UTC do 29 v 12 UTC
Jihovýchodní vítr 10 kt
Viditelnost 10 km a více
Oblačno až skoro zataženo ve výšce 2500 ft
Změna
od 28 v 20 UTC do 28 v 23 UTC
Jihozápadní vítr 5 kt
Skoro jasno ve výšce 3300 ft

TAF: HKJK 280500Z 2806/2912 14010KT 9999 BKN025 BECMG 2820/2823 23005KT FEW033

Stav a předpovědi počasí z více než 4 000 letišť (zprávy METAR a TAF).

Červené a žluté tečky na mapě představují dostupné meteorologické stanice.

Když kurzor umístíte na tečku, zobrazí se název stanice.

Pak kliknutím zobrazíte stav a předpověď počasí.

Chcete-li změnit mapu, kliknutím na zelené tlačítko se znaménkem +mapu přiblížíte, kliknutím na zelené tlačítko se znaménkem – mapu oddálíte a kliknutím na zelené šipky přejdete na sousední mapy.


METAR-TAF: